Time;durP1;ratioP1;P1;durP2;ratioP2;P2;SDS_P1;SDS_P2;PMS_P1;PMS_P2;Temp;Humidity;BMP_temperature;BMP_pressure;BME280_temperature;BME280_humidity;BME280_pressure;Samples;Min_cycle;Max_cycle;Signal;HPM_P1;HPM_P2
2021/06/12 00:02:20;;;;;;;5.25;4.28;;;18.40;78.40;;;;;;5037571;28;20083;-37
2021/06/12 00:04:46;;;;;;;8.13;4.57;;;18.30;78.40;;;;;;5037543;28;20318;-38
2021/06/12 00:07:11;;;;;;;11.20;4.45;;;18.30;78.40;;;;;;5036523;28;20445;-38
2021/06/12 00:09:37;;;;;;;9.02;4.70;;;18.30;78.40;;;;;;5037299;28;20037;-37
2021/06/12 00:12:03;;;;;;;6.38;4.47;;;18.30;78.40;;;;;;5037494;28;20038;-37
2021/06/12 00:14:29;;;;;;;6.40;4.55;;;18.20;78.40;;;;;;5036132;28;20049;-37
2021/06/12 00:16:55;;;;;;;6.28;4.78;;;18.20;78.90;;;;;;5052330;28;20029;-37
2021/06/12 00:19:21;;;;;;;6.65;4.63;;;18.20;78.50;;;;;;5037465;28;20040;-37
2021/06/12 00:21:47;;;;;;;5.05;4.22;;;18.20;78.60;;;;;;5036878;28;20119;-37
2021/06/12 00:24:12;;;;;;;6.90;4.43;;;18.20;78.60;;;;;;5037337;28;20029;-38
2021/06/12 00:26:38;;;;;;;4.97;4.47;;;18.20;78.80;;;;;;5036954;28;20041;-37
2021/06/12 00:29:05;;;;;;;9.00;4.72;;;18.10;78.80;;;;;;5037023;28;20057;-38
2021/06/12 00:31:31;;;;;;;7.72;4.57;;;18.10;78.80;;;;;;5036681;28;20022;-37
2021/06/12 00:33:57;;;;;;;5.35;4.38;;;18.10;78.80;;;;;;5036926;28;20071;-36
2021/06/12 00:36:23;;;;;;;5.13;4.57;;;18.10;78.80;;;;;;5036752;28;20030;-37
2021/06/12 00:38:50;;;;;;;10.20;4.22;;;18.00;79.00;;;;;;5037079;28;20436;-37
2021/06/12 00:41:17;;;;;;;5.80;4.65;;;18.10;79.20;;;;;;5036691;28;20471;-37
2021/06/12 00:43:43;;;;;;;5.03;4.30;;;18.10;79.20;;;;;;5036753;28;20076;-38
2021/06/12 00:46:09;;;;;;;9.45;4.55;;;18.00;79.10;;;;;;5036885;28;20348;-37
2021/06/12 00:48:35;;;;;;;7.50;5.03;;;18.10;79.30;;;;;;5036130;28;20029;-37
2021/06/12 00:51:01;;;;;;;9.55;4.78;;;18.00;79.30;;;;;;5036705;28;20420;-37
2021/06/12 00:53:42;;;;;;;6.85;4.47;;;18.00;79.30;;;;;;5036144;28;20034;-37
2021/06/12 00:56:19;;;;;;;5.55;4.22;;;18.00;79.30;;;;;;5036716;28;20036;-37
2021/06/12 00:58:46;;;;;;;5.45;4.47;;;18.00;79.30;;;;;;5036745;28;20033;-37
2021/06/12 01:01:17;;;;;;;8.35;5.00;;;18.00;79.40;;;;;;5036641;28;20049;-37
2021/06/12 01:03:45;;;;;;;7.28;5.30;;;18.00;79.50;;;;;;5036362;28;20038;-37
2021/06/12 01:06:13;;;;;;;7.75;5.35;;;18.00;80.20;;;;;;5036677;28;20034;-37
2021/06/12 01:08:41;;;;;;;7.90;4.70;;;18.00;79.70;;;;;;5035874;28;20112;-37
2021/06/12 01:11:08;;;;;;;12.10;5.65;;;18.00;79.80;;;;;;5036185;28;20034;-37
2021/06/12 01:14:04;;;;;;;5.43;4.55;;;18.00;79.90;;;;;;5035796;28;20025;-37
2021/06/12 01:16:50;;;;;;;6.28;4.72;;;18.00;79.60;;;;;;5036084;28;20082;-37
2021/06/12 01:19:41;;;;;;;5.47;4.85;;;17.90;79.80;;;;;;5035351;28;20341;-38
2021/06/12 01:22:17;;;;;;;6.30;4.72;;;17.90;79.90;;;;;;5035560;28;20038;-37
2021/06/12 01:25:08;;;;;;;6.53;4.93;;;17.90;79.90;;;;;;5035962;28;20417;-37
2021/06/12 01:27:56;;;;;;;5.18;4.35;;;17.90;80.00;;;;;;5036255;28;20029;-37
2021/06/12 01:30:26;;;;;;;6.00;5.07;;;17.90;79.90;;;;;;5029853;28;20049;-37
2021/06/12 01:32:58;;;;;;;8.13;5.65;;;17.90;80.20;;;;;;5035399;28;20432;-37
2021/06/12 01:35:29;;;;;;;6.47;4.95;;;17.90;80.30;;;;;;5035713;28;20064;-37
2021/06/12 01:37:55;;;;;;;;;;;17.90;80.30;;;;;;5036195;28;20061;-37
2021/06/12 01:40:24;;;;;;;6.40;5.68;;;17.90;79.80;;;;;;5035688;28;19912;-37
2021/06/12 01:42:52;;;;;;;10.27;6.20;;;17.80;80.50;;;;;;5035514;28;20378;-37
2021/06/12 01:45:18;;;;;;;10.65;6.60;;;17.80;80.50;;;;;;5035594;28;20036;-37
2021/06/12 01:47:46;;;;;;;5.93;5.20;;;17.80;80.60;;;;;;5035296;28;20487;-37
2021/06/12 01:50:16;;;;;;;7.88;5.28;;;17.80;80.70;;;;;;5035507;28;20026;-37
2021/06/12 01:52:43;;;;;;;8.18;4.93;;;17.70;80.70;;;;;;5035316;28;20025;-37
2021/06/12 01:55:12;;;;;;;6.07;5.05;;;17.80;80.70;;;;;;5035473;28;20155;-37
2021/06/12 01:57:41;;;;;;;7.10;5.45;;;17.70;80.60;;;;;;5035610;28;20033;-37
2021/06/12 02:00:08;;;;;;;6.10;4.97;;;17.80;80.70;;;;;;5035464;28;20029;-37
2021/06/12 02:02:36;;;;;;;5.47;4.75;;;17.80;80.60;;;;;;5035382;28;20372;-37
2021/06/12 02:05:02;;;;;;;9.43;5.45;;;17.80;80.70;;;;;;5035720;28;20321;-37
2021/06/12 02:07:30;;;;;;;6.40;5.47;;;17.80;80.70;;;;;;5035207;28;20038;-37
2021/06/12 02:09:56;;;;;;;8.23;5.80;;;17.80;80.70;;;;;;5035670;28;20326;-37
2021/06/12 02:12:25;;;;;;;5.57;4.80;;;17.80;80.70;;;;;;5035488;28;20452;-37
2021/06/12 02:14:52;;;;;;;8.70;5.35;;;17.70;80.60;;;;;;5035574;28;20025;-37
2021/06/12 02:17:19;;;;;;;5.82;5.22;;;17.70;80.60;;;;;;5035263;28;20432;-37
2021/06/12 02:19:45;;;;;;;8.45;5.97;;;17.70;80.70;;;;;;5035538;28;20033;-37
2021/06/12 02:22:12;;;;;;;7.90;5.68;;;17.70;80.80;;;;;;5035155;28;20401;-37
2021/06/12 02:24:38;;;;;;;11.55;6.70;;;17.70;80.80;;;;;;5035698;28;20055;-37
2021/06/12 02:27:05;;;;;;;6.40;5.50;;;17.70;81.00;;;;;;5035345;28;20424;-37
2021/06/12 02:29:33;;;;;;;9.95;5.85;;;17.70;81.00;;;;;;5036011;28;20045;-37
2021/06/12 02:32:06;;;;;;;5.95;4.97;;;17.70;81.00;;;;;;5039382;28;20054;-37
2021/06/12 02:34:33;;;;;;;7.97;5.80;;;17.70;81.00;;;;;;5039177;28;20022;-37
2021/06/12 02:36:59;;;;;;;7.93;5.68;;;17.70;81.20;;;;;;5039082;28;20104;-37
2021/06/12 02:39:25;;;;;;;8.23;6.10;;;17.70;81.20;;;;;;5039083;28;20021;-38
2021/06/12 02:41:51;;;;;;;8.02;5.70;;;17.70;81.30;;;;;;5039067;28;20037;-37
2021/06/12 02:44:17;;;;;;;6.53;5.38;;;17.70;81.40;;;;;;5039206;28;20325;-37
2021/06/12 02:46:44;;;;;;;8.77;4.85;;;17.70;81.40;;;;;;5038851;28;20029;-37
2021/06/12 02:49:13;;;;;;;6.13;5.03;;;17.70;81.40;;;;;;5038932;28;20033;-37
2021/06/12 02:51:46;;;;;;;8.23;5.93;;;17.70;81.40;;;;;;5038782;28;20045;-37
2021/06/12 02:54:15;;;;;;;7.40;5.07;;;17.70;81.40;;;;;;5038620;28;20104;-38
2021/06/12 02:56:44;;;;;;;7.20;5.57;;;17.70;81.40;;;;;;5038717;28;20103;-37
2021/06/12 02:59:15;;;;;;;6.25;4.90;;;17.70;81.50;;;;;;5038637;28;20426;-37
2021/06/12 03:01:42;;;;;;;6.70;5.28;;;17.80;81.50;;;;;;5038665;28;20037;-37
2021/06/12 03:04:12;;;;;;;7.32;5.38;;;17.80;81.50;;;;;;5038585;28;20045;-37
2021/06/12 03:06:39;;;;;;;7.82;5.78;;;17.80;81.60;;;;;;5038542;28;20038;-37
2021/06/12 03:09:06;;;;;;;6.65;5.43;;;17.80;81.60;;;;;;5038381;28;20036;-37
2021/06/12 03:11:34;;;;;;;7.22;5.80;;;17.80;81.60;;;;;;5038382;28;20033;-37
2021/06/12 03:14:01;;;;;;;5.97;5.15;;;17.90;81.70;;;;;;5038505;28;20422;-38
2021/06/12 03:16:28;;;;;;;7.05;5.80;;;17.90;81.70;;;;;;5038374;28;20025;-37
2021/06/12 03:18:54;;;;;;;6.70;5.13;;;17.90;81.60;;;;;;5037997;28;20053;-37
2021/06/12 03:21:25;;;;;;;9.15;6.00;;;17.90;81.60;;;;;;5038252;28;20129;-37
2021/06/12 03:23:53;;;;;;;7.90;6.20;;;18.00;81.50;;;;;;5038417;28;20026;-37
2021/06/12 03:26:20;;;;;;;7.95;5.78;;;18.00;81.50;;;;;;5037878;28;20041;-37
2021/06/12 03:28:46;;;;;;;6.80;5.57;;;18.00;81.60;;;;;;5038109;28;20029;-37
2021/06/12 03:31:12;;;;;;;11.40;6.78;;;18.10;81.60;;;;;;5038169;28;20037;-37
2021/06/12 03:33:38;;;;;;;8.90;6.68;;;18.10;81.60;;;;;;5037985;28;20030;-37
2021/06/12 03:36:06;;;;;;;8.15;6.28;;;18.10;81.20;;;;;;5038226;28;20033;-37
2021/06/12 03:38:34;;;;;;;8.90;6.13;;;18.20;81.20;;;;;;5037751;28;20036;-37
2021/06/12 03:41:00;;;;;;;6.60;5.38;;;18.20;80.90;;;;;;5036891;28;20029;-37
2021/06/12 03:43:27;;;;;;;7.53;6.25;;;18.20;81.00;;;;;;5037437;28;20033;-37
2021/06/12 03:45:56;;;;;;;8.23;6.47;;;18.20;80.80;;;;;;5038220;28;20310;-37
2021/06/12 03:48:22;;;;;;;7.07;5.30;;;18.30;80.70;;;;;;5037520;28;20091;-37
2021/06/12 03:50:50;;;;;;;7.85;5.65;;;18.30;80.80;;;;;;5038074;28;20104;-37
2021/06/12 03:53:17;;;;;;;6.78;6.07;;;18.40;80.70;;;;;;5037291;28;20037;-37
2021/06/12 03:55:43;;;;;;;8.48;6.18;;;18.40;80.60;;;;;;5037950;28;20041;-37
2021/06/12 03:58:09;;;;;;;7.95;5.68;;;18.50;80.40;;;;;;5037301;28;20033;-37
2021/06/12 04:00:35;;;;;;;7.22;6.38;;;18.50;80.40;;;;;;5037542;28;20049;-37
2021/06/12 04:03:00;;;;;;;7.13;4.97;;;18.50;80.20;;;;;;5037214;28;20026;-37
2021/06/12 04:05:26;;;;;;;7.88;5.75;;;18.60;80.30;;;;;;5037398;28;20357;-37
2021/06/12 04:07:52;;;;;;;10.35;6.78;;;18.60;80.30;;;;;;5037007;28;20081;-37
2021/06/12 04:10:18;;;;;;;8.38;6.20;;;18.60;80.10;;;;;;5037572;28;20025;-37
2021/06/12 04:12:43;;;;;;;12.70;6.95;;;18.70;80.10;;;;;;5037114;28;20482;-37
2021/06/12 04:15:09;;;;;;;8.85;6.40;;;18.80;80.00;;;;;;5037312;28;20029;-38
2021/06/12 04:17:37;;;;;;;7.47;6.03;;;18.80;79.50;;;;;;5036957;28;20125;-37
2021/06/12 04:20:04;;;;;;;8.25;6.22;;;18.80;79.60;;;;;;5037060;28;20433;-38
2021/06/12 04:22:29;;;;;;;10.77;6.90;;;18.90;79.60;;;;;;5036870;28;20076;-37
2021/06/12 04:24:55;;;;;;;9.80;6.10;;;18.90;79.60;;;;;;5037019;28;20056;-37
2021/06/12 04:27:21;;;;;;;10.60;7.70;;;19.00;79.50;;;;;;5037079;28;20037;-37
2021/06/12 04:29:46;;;;;;;11.32;6.70;;;19.00;79.20;;;;;;5052264;28;20048;-37
2021/06/12 04:32:12;;;;;;;8.45;7.10;;;18.90;79.10;;;;;;5036474;28;20068;-37
2021/06/12 04:34:38;;;;;;;9.82;7.07;;;19.00;79.20;;;;;;5036944;28;20100;-37
2021/06/12 04:37:04;;;;;;;10.55;6.50;;;19.00;79.20;;;;;;5036772;28;20057;-37
2021/06/12 04:39:30;;;;;;;10.73;6.75;;;19.00;79.40;;;;;;5036888;28;20030;-37
2021/06/12 04:41:56;;;;;;;8.73;6.63;;;19.10;79.60;;;;;;5036774;28;20125;-37
2021/06/12 04:44:22;;;;;;;9.75;7.20;;;19.10;79.60;;;;;;5036801;28;20415;-37
2021/06/12 04:46:48;;;;;;;9.27;6.47;;;19.20;79.90;;;;;;5036910;28;20116;-37
2021/06/12 04:49:13;;;;;;;9.63;6.25;;;19.20;79.70;;;;;;5036767;28;20067;-37
2021/06/12 04:51:39;;;;;;;8.52;7.32;;;19.30;79.80;;;;;;5036720;28;20037;-37
2021/06/12 04:54:05;;;;;;;9.85;6.55;;;19.30;79.50;;;;;;5036656;28;20018;-37
2021/06/12 04:56:30;;;;;;;10.65;6.05;;;19.40;79.50;;;;;;5036412;28;20025;-37
2021/06/12 04:58:56;;;;;;;7.55;5.97;;;19.40;79.20;;;;;;5036461;28;20026;-38
2021/06/12 05:01:22;;;;;;;9.32;6.57;;;19.50;79.40;;;;;;5036453;28;20056;-37
2021/06/12 05:03:47;;;;;;;7.20;5.88;;;19.50;79.30;;;;;;5036097;28;20030;-37
2021/06/12 05:06:13;;;;;;;6.25;5.45;;;19.60;79.10;;;;;;5036378;28;20394;-37
2021/06/12 05:08:39;;;;;;;9.05;7.22;;;19.70;78.80;;;;;;5035755;28;20037;-37
2021/06/12 05:11:04;;;;;;;8.45;5.97;;;19.70;78.70;;;;;;5036146;28;20032;-37
2021/06/12 05:13:34;;;;;;;6.72;5.07;;;19.80;78.60;;;;;;5035945;28;20021;-37
2021/06/12 05:16:00;;;;;;;6.28;5.35;;;19.90;78.40;;;;;;5036719;28;20025;-37
2021/06/12 05:18:34;;;;;;;5.80;5.05;;;20.00;78.20;;;;;;5034832;28;20436;-38
2021/06/12 05:21:00;;;;;;;8.02;4.65;;;20.00;78.10;;;;;;5036117;28;20038;-37
2021/06/12 05:23:26;;;;;;;8.32;4.90;;;20.10;77.70;;;;;;5035627;28;20361;-37
2021/06/12 05:25:52;;;;;;;5.55;4.75;;;20.20;77.50;;;;;;5036268;28;20401;-38
2021/06/12 05:28:18;;;;;;;6.50;5.05;;;20.20;77.10;;;;;;5035371;28;20040;-38
2021/06/12 05:30:43;;;;;;;5.47;4.78;;;20.30;77.40;;;;;;5036010;28;20449;-37
2021/06/12 05:33:09;;;;;;;8.93;5.00;;;20.40;76.50;;;;;;5035461;28;20029;-38
2021/06/12 05:35:34;;;;;;;10.30;4.55;;;20.40;76.60;;;;;;5035199;28;20030;-38
2021/06/12 05:38:01;;;;;;;5.40;4.65;;;20.40;76.50;;;;;;5035386;28;20108;-38
2021/06/12 05:40:26;;;;;;;4.85;4.18;;;20.50;76.20;;;;;;5035690;28;20080;-37
2021/06/12 05:42:52;;;;;;;10.18;4.68;;;20.50;76.30;;;;;;5034910;28;20405;-37
2021/06/12 05:45:18;;;;;;;6.10;4.85;;;20.60;76.40;;;;;;5035559;28;20064;-37
2021/06/12 05:47:43;;;;;;;6.28;4.47;;;20.60;76.00;;;;;;5035136;28;20026;-37
2021/06/12 05:50:09;;;;;;;5.55;4.20;;;20.70;75.50;;;;;;5035358;28;20099;-39
2021/06/12 05:52:35;;;;;;;7.50;4.50;;;20.70;75.60;;;;;;5035381;28;20022;-38
2021/06/12 05:55:01;;;;;;;7.78;4.10;;;20.70;74.90;;;;;;5035475;28;20022;-38
2021/06/12 05:57:26;;;;;;;4.75;3.78;;;20.80;74.40;;;;;;5034563;28;20056;-37
2021/06/12 05:59:52;;;;;;;4.25;3.65;;;20.80;74.40;;;;;;5035600;28;20409;-37
2021/06/12 06:02:18;;;;;;;6.13;4.07;;;20.80;73.80;;;;;;5035208;28;20417;-37
2021/06/12 06:04:43;;;;;;;4.72;3.75;;;20.90;73.50;;;;;;5034901;28;20048;-38
2021/06/12 06:07:09;;;;;;;6.05;4.30;;;20.90;73.30;;;;;;5035244;28;20041;-38
2021/06/12 06:09:34;;;;;;;5.30;4.30;;;21.00;73.50;;;;;;5035240;28;20030;-40
2021/06/12 06:12:00;;;;;;;7.00;4.13;;;21.00;73.10;;;;;;5035226;28;20034;-41
2021/06/12 06:14:26;;;;;;;6.45;4.07;;;21.00;72.40;;;;;;5050593;28;20026;-40
2021/06/12 06:16:51;;;;;;;7.07;3.85;;;21.10;72.40;;;;;;5033750;28;20167;-41
2021/06/12 06:19:17;;;;;;;7.50;4.43;;;21.10;72.50;;;;;;5035510;28;20056;-40
2021/06/12 06:21:43;;;;;;;10.50;4.57;;;21.20;72.80;;;;;;5034845;28;20406;-40
2021/06/12 06:24:09;;;;;;;5.97;4.00;;;21.20;71.70;;;;;;5034818;28;20033;-40
2021/06/12 06:26:34;;;;;;;6.07;4.40;;;21.20;71.60;;;;;;5035016;28;20034;-41
2021/06/12 06:29:00;;;;;;;4.22;3.83;;;21.30;71.00;;;;;;5035136;28;20308;-40
2021/06/12 06:31:26;;;;;;;7.90;4.53;;;21.30;71.30;;;;;;5034851;28;20028;-40
2021/06/12 06:33:51;;;;;;;7.00;4.30;;;21.40;70.90;;;;;;5034697;28;20025;-40
2021/06/12 06:36:17;;;;;;;4.63;3.83;;;21.40;71.10;;;;;;5035208;28;20029;-40
2021/06/12 06:38:43;;;;;;;5.90;3.90;;;21.40;70.40;;;;;;5035265;28;20049;-40
2021/06/12 06:41:09;;;;;;;6.55;4.05;;;21.40;70.50;;;;;;5035082;28;20029;-40
2021/06/12 06:43:35;;;;;;;6.07;4.07;;;21.40;70.40;;;;;;5034817;28;20441;-40
2021/06/12 06:46:01;;;;;;;5.22;3.47;;;21.50;70.50;;;;;;5035205;28;20036;-40
2021/06/12 06:48:26;;;;;;;6.63;3.67;;;21.50;69.90;;;;;;5034781;28;20503;-40
2021/06/12 06:50:52;;;;;;;4.18;3.42;;;21.60;69.60;;;;;;5035012;28;20160;-40
2021/06/12 06:53:18;;;;;;;5.47;4.50;;;21.60;69.20;;;;;;5034706;28;20036;-41
2021/06/12 06:55:44;;;;;;;6.20;4.13;;;21.70;69.50;;;;;;5031741;28;20034;-40
2021/06/12 06:58:09;;;;;;;4.72;3.65;;;21.70;69.70;;;;;;5033822;28;20022;-41
2021/06/12 07:00:35;;;;;;;4.15;3.42;;;21.70;69.40;;;;;;5034212;28;20033;-40
2021/06/12 07:03:01;;;;;;;4.85;4.20;;;21.80;68.90;;;;;;5033428;28;20436;-41
2021/06/12 07:05:27;;;;;;;3.65;3.10;;;21.90;68.30;;;;;;5034391;28;20366;-40
2021/06/12 07:07:53;;;;;;;5.40;3.90;;;21.90;68.10;;;;;;5034100;28;20044;-43
2021/06/12 07:10:19;;;;;;;3.63;3.25;;;22.00;67.90;;;;;;5034275;28;20025;-40
2021/06/12 07:12:45;;;;;;;5.65;4.18;;;22.10;67.80;;;;;;5033509;28;20033;-41
2021/06/12 07:15:11;;;;;;;7.85;4.03;;;22.10;67.70;;;;;;5034286;28;20083;-42
2021/06/12 07:17:37;;;;;;;4.80;3.53;;;22.20;67.20;;;;;;5035683;28;20044;-41
2021/06/12 07:20:06;;;;;;;5.93;5.00;;;22.30;66.90;;;;;;5037655;28;20025;-43
2021/06/12 07:22:32;;;;;;;8.93;4.25;;;22.30;66.80;;;;;;5037467;28;20061;-41
2021/06/12 07:24:58;;;;;;;4.80;3.67;;;22.40;66.60;;;;;;5037786;28;20389;-41
2021/06/12 07:27:24;;;;;;;6.45;4.75;;;22.40;65.70;;;;;;5036922;28;20033;-41
2021/06/12 07:29:49;;;;;;;4.75;4.15;;;22.40;65.40;;;;;;5037776;28;20422;-41
2021/06/12 07:32:15;;;;;;;3.58;3.03;;;22.40;65.30;;;;;;5037400;28;20036;-41
2021/06/12 07:34:41;;;;;;;4.60;3.95;;;22.50;65.20;;;;;;5036692;28;20094;-41
2021/06/12 07:37:07;;;;;;;5.22;4.43;;;22.50;65.00;;;;;;5017369;28;20038;-42
2021/06/12 07:39:33;;;;;;;7.50;3.08;;;22.60;65.10;;;;;;5017808;28;20076;-40
2021/06/12 07:41:58;;;;;;;4.38;3.47;;;22.60;65.00;;;;;;5016766;28;20110;-41
2021/06/12 07:44:24;;;;;;;3.28;2.97;;;22.60;65.50;;;;;;5017114;28;20029;-40
2021/06/12 07:46:50;;;;;;;6.53;3.83;;;22.70;65.20;;;;;;5017390;28;20037;-41
2021/06/12 07:49:16;;;;;;;4.53;3.65;;;22.70;65.00;;;;;;5017037;28;20030;-41
2021/06/12 07:51:42;;;;;;;4.00;3.15;;;22.80;65.10;;;;;;5016636;28;20042;-41
2021/06/12 07:54:08;;;;;;;5.03;3.20;;;22.80;65.20;;;;;;5017675;28;20029;-41
2021/06/12 07:56:34;;;;;;;4.40;2.65;;;22.90;64.60;;;;;;5017163;28;20056;-40
2021/06/12 07:59:00;;;;;;;3.70;3.20;;;22.90;64.20;;;;;;5017242;28;20030;-40
2021/06/12 08:01:26;;;;;;;6.70;3.33;;;22.90;64.40;;;;;;5017025;28;20045;-40
2021/06/12 08:03:52;;;;;;;6.03;2.75;;;23.00;64.60;;;;;;5017298;28;20026;-41
2021/06/12 08:06:18;;;;;;;4.20;3.20;;;23.10;63.40;;;;;;5017180;28;20042;-40
2021/06/12 08:08:44;;;;;;;3.60;2.97;;;23.10;63.10;;;;;;5017454;28;20062;-41
2021/06/12 08:11:10;;;;;;;6.20;3.25;;;23.10;63.50;;;;;;5016773;28;20381;-41
2021/06/12 08:13:36;;;;;;;3.70;2.88;;;23.20;63.30;;;;;;5016559;28;20104;-41
2021/06/12 08:16:03;;;;;;;4.20;2.92;;;23.20;62.20;;;;;;5016858;28;20101;-41
2021/06/12 08:18:29;;;;;;;4.60;3.47;;;23.20;62.10;;;;;;5016381;28;20042;-41
2021/06/12 08:20:55;;;;;;;3.88;2.88;;;23.30;62.50;;;;;;5016765;28;20373;-41
2021/06/12 08:23:21;;;;;;;6.72;4.65;;;23.30;61.90;;;;;;5016655;28;20053;-41
2021/06/12 08:25:47;;;;;;;3.33;2.90;;;23.30;62.10;;;;;;5016510;28;20034;-40
2021/06/12 08:28:13;;;;;;;5.47;3.45;;;23.40;61.90;;;;;;5015967;28;20084;-40
2021/06/12 08:30:39;;;;;;;4.75;2.50;;;23.40;61.80;;;;;;5017307;28;20120;-40
2021/06/12 08:33:07;;;;;;;5.22;3.67;;;23.40;60.90;;;;;;5016120;28;20026;-41
2021/06/12 08:35:34;;;;;;;2.80;2.45;;;23.50;61.50;;;;;;5016866;28;20099;-41
2021/06/12 08:38:00;;;;;;;4.10;2.65;;;23.50;61.00;;;;;;5016564;28;20022;-40
2021/06/12 08:40:26;;;;;;;4.10;3.22;;;23.50;60.80;;;;;;5016734;28;20025;-40
2021/06/12 08:42:53;;;;;;;4.78;3.10;;;23.60;60.80;;;;;;5015671;28;20038;-40
2021/06/12 08:45:22;;;;;;;3.58;2.72;;;23.60;60.60;;;;;;5016440;28;20425;-41
2021/06/12 08:47:49;;;;;;;3.00;2.50;;;23.70;60.50;;;;;;5015380;28;20409;-41
2021/06/12 08:50:15;;;;;;;3.38;2.60;;;23.70;60.00;;;;;;5016430;28;20034;-40
2021/06/12 08:52:41;;;;;;;4.53;3.08;;;23.70;60.40;;;;;;5015691;28;20321;-41
2021/06/12 08:55:10;;;;;;;3.92;3.53;;;23.70;60.70;;;;;;5016285;28;20101;-40
2021/06/12 08:57:36;;;;;;;4.40;3.08;;;23.80;60.30;;;;;;5015634;28;20030;-40
2021/06/12 09:00:04;;;;;;;6.00;3.55;;;23.90;59.70;;;;;;5016202;28;20030;-40
2021/06/12 09:03:09;;;;;;;3.80;2.80;;;23.80;59.70;;;;;;5015803;28;20037;-40
2021/06/12 09:05:56;;;;;;;3.17;2.45;;;23.90;60.20;;;;;;5015908;28;20042;-40
2021/06/12 09:08:30;;;;;;;2.88;2.13;;;23.90;59.80;;;;;;5015553;28;20040;-40
2021/06/12 09:11:12;;;;;;;2.33;2.13;;;23.90;59.10;;;;;;5016190;28;20061;-41
2021/06/12 09:13:54;;;;;;;3.42;2.13;;;24.00;58.70;;;;;;5015869;28;20034;-41
2021/06/12 09:16:21;;;;;;;4.85;2.70;;;24.10;58.80;;;;;;5015756;28;20105;-40
2021/06/12 09:18:47;;;;;;;9.30;4.25;;;24.10;58.80;;;;;;5015769;28;20045;-41
2021/06/12 09:21:29;;;;;;;2.83;2.38;;;24.10;57.70;;;;;;5015863;28;20045;-41
2021/06/12 09:23:57;;;;;;;5.32;3.63;;;24.20;57.30;;;;;;5015724;28;20045;-41
2021/06/12 09:27:05;;;;;;;4.88;3.67;;;24.20;57.50;;;;;;5015387;28;20038;-41
2021/06/12 09:29:47;;;;;;;3.40;2.67;;;24.30;57.40;;;;;;5012876;28;20337;-40
2021/06/12 09:32:26;;;;;;;2.55;2.20;;;24.40;57.00;;;;;;5015228;28;20049;-40
2021/06/12 09:35:02;;;;;;;3.20;2.58;;;24.40;56.60;;;;;;5015739;28;20496;-40
2021/06/12 09:37:28;;;;;;;4.13;2.60;;;24.40;56.40;;;;;;5029094;28;20377;-40
2021/06/12 09:40:14;;;;;;;2.92;2.47;;;24.50;56.50;;;;;;5014828;28;20045;-40
2021/06/12 09:42:54;;;;;;;3.25;2.53;;;24.60;55.80;;;;;;5014938;28;20460;-41
2021/06/12 09:45:40;;;;;;;3.58;2.95;;;24.60;56.30;;;;;;5015639;28;20030;-40
2021/06/12 09:48:17;;;;;;;2.55;2.35;;;24.70;56.60;;;;;;5015276;28;20052;-40
2021/06/12 09:50:46;;;;;;;5.93;2.58;;;24.80;55.90;;;;;;5015150;28;20065;-40
2021/06/12 09:53:15;;;;;;;3.78;3.13;;;24.80;55.90;;;;;;5015152;28;20030;-40
2021/06/12 09:55:41;;;;;;;2.63;2.42;;;24.90;55.70;;;;;;5015337;28;20061;-40
2021/06/12 09:58:07;;;;;;;4.18;2.40;;;24.90;54.80;;;;;;5030818;28;20025;-40
2021/06/12 10:00:39;;;;;;;3.00;2.67;;;24.90;54.70;;;;;;5015293;28;20361;-40
2021/06/12 10:03:19;;;;;;;6.22;4.57;;;24.90;55.10;;;;;;5030111;28;20034;-40
2021/06/12 10:06:08;;;;;;;4.78;2.90;;;25.00;55.20;;;;;;5015285;28;20113;-40
2021/06/12 10:08:34;;;;;;;3.25;2.88;;;25.00;55.50;;;;;;5015023;28;20038;-40
2021/06/12 10:11:00;;;;;;;4.95;2.92;;;25.00;55.60;;;;;;5015026;28;20030;-40
2021/06/12 10:13:26;;;;;;;4.07;2.80;;;25.00;55.10;;;;;;5014826;28;20028;-40
2021/06/12 10:15:52;;;;;;;3.42;2.70;;;25.10;55.30;;;;;;5015027;28;20030;-40
2021/06/12 10:18:21;;;;;;;3.15;2.80;;;25.10;54.80;;;;;;5014879;28;20084;-40
2021/06/12 10:20:48;;;;;;;4.47;3.40;;;25.10;54.60;;;;;;5015185;28;20405;-40
2021/06/12 10:23:15;;;;;;;3.58;2.53;;;25.10;55.30;;;;;;5014575;28;20469;-40
2021/06/12 10:25:41;;;;;;;2.50;2.30;;;25.20;53.90;;;;;;5015086;28;20124;-41
2021/06/12 10:28:08;;;;;;;3.38;2.53;;;25.20;53.50;;;;;;5014384;28;20068;-40
2021/06/12 10:30:34;;;;;;;3.65;2.67;;;25.20;52.00;;;;;;5015018;28;20030;-40
2021/06/12 10:33:01;;;;;;;3.60;2.20;;;25.30;51.60;;;;;;5014798;28;20049;-40
2021/06/12 10:35:28;;;;;;;3.17;2.60;;;25.40;52.40;;;;;;5015058;28;20025;-40
2021/06/12 10:38:25;;;;;;;3.30;2.97;;;25.50;52.40;;;;;;5014314;28;20037;-40
2021/06/12 10:40:53;;;;;;;3.00;2.15;;;25.60;52.30;;;;;;5014781;28;20018;-40
2021/06/12 10:43:23;;;;;;;3.40;2.75;;;25.70;52.20;;;;;;5014562;28;20034;-41
2021/06/12 10:46:08;;;;;;;5.63;3.10;;;25.80;51.30;;;;;;5014946;28;20045;-40
2021/06/12 10:48:46;;;;;;;4.05;2.65;;;25.90;50.60;;;;;;5014629;28;20034;-41
2021/06/12 10:51:27;;;;;;;4.43;2.08;;;25.90;50.60;;;;;;5016506;28;20033;-40
2021/06/12 10:54:12;;;;;;;3.38;2.38;;;26.00;49.90;;;;;;5018535;28;20053;-41
2021/06/12 10:56:40;;;;;;;3.95;2.22;;;26.00;49.90;;;;;;5018312;28;20062;-40
2021/06/12 10:59:07;;;;;;;2.75;2.42;;;26.10;50.40;;;;;;5018175;28;20418;-40
2021/06/12 11:01:34;;;;;;;4.53;2.38;;;26.20;49.90;;;;;;5017810;28;20044;-40
2021/06/12 11:06:46;;;;;;;2.83;2.13;;;26.30;49.00;;;;;;5018891;28;20092;-40
2021/06/12 11:09:18;;;;;;;2.63;2.38;;;26.30;49.20;;;;;;5018337;28;20098;-40
2021/06/12 11:11:46;;;;;;;4.88;2.97;;;26.30;49.60;;;;;;5018496;28;20080;-41
2021/06/12 11:14:21;;;;;;;2.42;2.22;;;26.40;49.50;;;;;;5018834;28;20088;-40
2021/06/12 11:17:13;;;;;;;2.95;2.45;;;26.40;48.70;;;;;;5018233;28;20030;-40
2021/06/12 11:19:44;;;;;;;3.47;2.35;;;26.50;49.20;;;;;;5018339;28;20040;-40
2021/06/12 11:22:26;;;;;;;2.75;2.45;;;26.60;49.60;;;;;;5018132;28;20042;-40
2021/06/12 11:24:58;;;;;;;3.20;2.53;;;26.70;50.20;;;;;;5017547;28;20036;-41
2021/06/12 11:27:41;;;;;;;4.97;2.38;;;26.80;49.90;;;;;;5018239;28;20076;-40
2021/06/12 11:30:23;;;;;;;3.17;2.47;;;26.90;49.00;;;;;;5016950;28;20040;-40
2021/06/12 11:33:00;;;;;;;3.40;2.45;;;27.00;47.60;;;;;;5016701;28;20088;-41
2021/06/12 11:35:38;;;;;;;3.15;2.85;;;27.00;48.20;;;;;;5018031;28;20026;-41
2021/06/12 11:38:06;;;;;;;3.33;2.60;;;27.20;48.80;;;;;;5017770;28;20068;-40
2021/06/12 11:40:32;;;;;;;2.75;2.50;;;27.20;48.10;;;;;;5017766;28;20062;-40
2021/06/12 11:42:58;;;;;;;7.53;3.65;;;27.30;48.40;;;;;;5017043;28;20029;-41
2021/06/12 11:45:26;;;;;;;5.22;2.72;;;27.50;46.70;;;;;;5017248;28;20441;-40
2021/06/12 11:47:54;;;;;;;2.40;2.15;;;27.60;47.50;;;;;;5017656;28;20034;-40
2021/06/12 11:50:31;;;;;;;6.53;2.67;;;27.70;47.60;;;;;;5016987;28;20034;-41
2021/06/12 11:52:57;;;;;;;2.70;2.20;;;27.90;46.30;;;;;;5017134;28;20057;-40
2021/06/12 11:55:25;;;;;;;3.28;2.65;;;28.00;46.70;;;;;;5017278;28;20026;-40
2021/06/12 11:57:53;;;;;;;3.88;2.88;;;28.20;46.50;;;;;;5016931;28;20026;-40
2021/06/12 12:00:37;;;;;;;2.63;2.25;;;28.30;46.20;;;;;;5017128;28;20021;-38
2021/06/12 12:03:10;;;;;;;4.20;2.90;;;28.40;46.60;;;;;;5016194;28;20040;-39
2021/06/12 12:05:41;;;;;;;7.13;3.30;;;28.60;46.50;;;;;;5017101;28;20033;-41
2021/06/12 12:08:20;;;;;;;5.68;3.10;;;28.70;45.70;;;;;;5016636;28;20033;-38
2021/06/12 12:10:51;;;;;;;5.38;3.10;;;28.70;45.10;;;;;;5017053;28;20114;-36
2021/06/12 12:13:42;;;;;;;5.60;2.47;;;28.80;45.10;;;;;;5016640;28;20053;-36
2021/06/12 12:16:20;;;;;;;2.95;2.47;;;29.00;45.20;;;;;;5015058;28;20338;-36
2021/06/12 12:18:48;;;;;;;8.57;3.92;;;29.10;43.90;;;;;;5016970;28;20049;-36
2021/06/12 12:21:14;;;;;;;6.07;3.67;;;29.20;44.00;;;;;;5017113;28;20033;-39
2021/06/12 12:23:40;;;;;;;6.38;4.40;;;29.30;43.30;;;;;;5017218;28;20129;-38
2021/06/12 12:26:10;;;;;;;6.55;3.20;;;29.30;43.80;;;;;;5016711;28;20133;-40
2021/06/12 12:29:14;;;;;;;3.03;2.55;;;29.40;43.60;;;;;;5016398;28;20131;-41
2021/06/12 12:31:47;;;;;;;6.65;2.85;;;29.50;43.00;;;;;;4974944;28;20050;-41
2021/06/12 12:34:15;;;;;;;5.97;4.47;;;29.60;42.70;;;;;;5011251;28;20057;-40
2021/06/12 12:36:43;;;;;;;3.83;2.90;;;29.70;43.50;;;;;;5016534;28;20096;-40
2021/06/12 12:39:09;;;;;;;8.27;3.70;;;29.80;42.90;;;;;;5016504;28;20061;-36
2021/06/12 12:41:36;;;;;;;5.28;4.00;;;29.90;43.30;;;;;;5015071;28;20037;-38
2021/06/12 12:44:07;;;;;;;2.67;2.35;;;30.00;43.80;;;;;;5016713;28;20026;-38
2021/06/12 12:46:33;;;;;;;5.05;2.60;;;30.30;43.30;;;;;;5016331;28;20057;-38
2021/06/12 12:48:59;;;;;;;3.25;2.53;;;30.40;42.70;;;;;;5016462;28;20374;-38
2021/06/12 12:51:26;;;;;;;3.33;2.78;;;30.70;42.40;;;;;;5015908;28;20288;-38
2021/06/12 12:53:52;;;;;;;12.23;3.40;;;30.90;41.90;;;;;;5016258;28;20037;-39
2021/06/12 12:56:18;;;;;;;3.13;2.83;;;31.10;41.70;;;;;;5015845;28;20026;-36
2021/06/12 12:58:53;;;;;;;3.70;2.42;;;31.30;40.90;;;;;;5016444;28;20032;-37